createdAt,value
2022-12-13T00:01:47.706Z,13.23
2022-12-13T00:04:16.297Z,12.30
2022-12-13T00:06:44.997Z,13.53
2022-12-13T00:09:16.681Z,13.70
2022-12-13T00:11:45.353Z,12.63
2022-12-13T00:14:15.056Z,12.53
2022-12-13T00:16:46.931Z,12.83
2022-12-13T00:19:16.219Z,13.07
2022-12-13T00:21:44.846Z,13.67
2022-12-13T00:24:13.191Z,11.50
2022-12-13T00:26:42.897Z,9.63
2022-12-13T00:29:12.191Z,12.43
2022-12-13T00:31:58.743Z,11.63
2022-12-13T00:34:28.552Z,14.13
2022-12-13T00:37:00.322Z,9.90
2022-12-13T00:39:29.225Z,12.53
2022-12-13T00:41:59.003Z,11.63
2022-12-13T00:44:27.837Z,12.43
2022-12-13T00:46:56.683Z,12.97
2022-12-13T00:49:25.385Z,11.00
2022-12-13T00:51:53.646Z,11.00
2022-12-13T00:54:22.018Z,11.97
2022-12-13T00:56:51.364Z,9.80
2022-12-13T00:59:21.078Z,13.90
2022-12-13T01:01:49.577Z,13.13
2022-12-13T01:04:17.900Z,12.15
2022-12-13T01:06:49.993Z,10.57
2022-12-13T01:09:20.823Z,9.90
2022-12-13T01:11:49.517Z,11.73
2022-12-13T01:14:18.784Z,10.97
2022-12-13T01:16:48.521Z,11.70
2022-12-13T01:19:17.270Z,10.50
2022-12-13T01:21:45.560Z,13.70
2022-12-13T01:24:15.232Z,12.67
2022-12-13T01:26:43.676Z,9.73
2022-12-13T01:29:11.968Z,12.83
2022-12-13T01:31:41.824Z,10.90
2022-12-13T01:34:13.034Z,14.00
2022-12-13T01:36:42.310Z,10.53
2022-12-13T01:39:15.161Z,9.37
2022-12-13T01:41:45.359Z,11.17
2022-12-13T01:44:46.981Z,10.87
2022-12-13T01:47:18.153Z,9.53
2022-12-13T01:49:48.023Z,12.10
2022-12-13T01:52:18.163Z,12.53
2022-12-13T01:54:49.127Z,11.73
2022-12-13T01:57:21.033Z,11.07
2022-12-13T01:59:53.245Z,11.27
2022-12-13T02:02:22.232Z,9.93
2022-12-13T02:04:58.164Z,10.83
2022-12-13T02:07:32.285Z,14.93
2022-12-13T02:10:02.972Z,11.03
2022-12-13T02:12:33.102Z,12.63
2022-12-13T02:15:03.822Z,10.67
2022-12-13T02:17:43.864Z,9.43
2022-12-13T02:20:42.401Z,13.13
2022-12-13T02:23:38.901Z,10.93
2022-12-13T02:26:28.398Z,14.63
2022-12-13T02:29:11.728Z,13.57
2022-12-13T02:31:47.085Z,11.83
2022-12-13T02:34:22.965Z,10.37
2022-12-13T02:36:58.426Z,10.47
2022-12-13T02:39:32.326Z,10.60
2022-12-13T02:42:03.978Z,10.73
2022-12-13T02:44:42.257Z,9.93
2022-12-13T02:47:22.215Z,10.10
2022-12-13T02:49:53.939Z,12.53
2022-12-13T02:52:27.180Z,11.63
2022-12-13T02:54:56.600Z,9.93
2022-12-13T02:57:31.201Z,9.23
2022-12-13T03:00:03.494Z,10.80
2022-12-13T03:02:44.249Z,8.63
2022-12-13T03:05:39.522Z,8.40
2022-12-13T03:08:21.686Z,10.50
2022-12-13T03:11:00.329Z,10.60
2022-12-13T03:13:37.209Z,11.27
2022-12-13T03:16:23.464Z,10.33
2022-12-13T03:18:54.324Z,9.13
2022-12-13T03:21:22.675Z,10.50
2022-12-13T03:23:50.966Z,10.10
2022-12-13T03:26:22.564Z,10.37
2022-12-13T03:28:52.026Z,10.50
2022-12-13T03:31:20.872Z,12.13
2022-12-13T03:33:49.184Z,10.03
2022-12-13T03:36:19.946Z,9.20
2022-12-13T03:38:52.456Z,13.97
2022-12-13T03:41:24.359Z,11.90
2022-12-13T03:43:52.776Z,11.23
2022-12-13T03:46:21.099Z,11.53
2022-12-13T03:48:49.431Z,12.40
2022-12-13T03:51:19.192Z,14.40
2022-12-13T03:53:47.480Z,10.80
2022-12-13T03:56:15.814Z,12.03
2022-12-13T03:58:44.173Z,11.33
2022-12-13T04:01:14.894Z,11.30
2022-12-13T04:03:45.355Z,11.30
2022-12-13T04:06:22.481Z,13.57
2022-12-13T04:08:54.082Z,11.33
2022-12-13T04:11:42.934Z,10.13
2022-12-13T04:14:11.888Z,12.43
2022-12-13T04:16:41.160Z,11.30
2022-12-13T04:19:09.477Z,10.53
2022-12-13T04:21:37.784Z,11.23
2022-12-13T04:24:07.978Z,10.10
2022-12-13T04:26:36.338Z,13.68
2022-12-13T04:29:04.711Z,11.33
2022-12-13T04:31:33.028Z,10.87
2022-12-13T04:34:01.289Z,10.93
2022-12-13T04:36:32.139Z,9.17
2022-12-13T04:39:01.549Z,12.43
2022-12-13T04:41:36.269Z,11.57
2022-12-13T04:44:05.870Z,10.93
2022-12-13T04:46:34.507Z,10.17
2022-12-13T04:49:02.818Z,10.80
2022-12-13T04:51:31.369Z,11.57
2022-12-13T04:54:23.693Z,11.37
2022-12-13T04:56:49.371Z,13.07
2022-12-13T04:59:18.094Z,13.37
2022-12-13T05:01:46.332Z,13.07
2022-12-13T05:04:14.621Z,11.93
2022-12-13T05:06:44.690Z,10.33
2022-12-13T05:09:16.073Z,11.97
2022-12-13T05:11:45.892Z,11.27
2022-12-13T05:14:23.612Z,12.60
2022-12-13T05:16:52.645Z,12.43
2022-12-13T05:19:21.213Z,10.90
2022-12-13T05:22:01.281Z,13.30
2022-12-13T05:24:30.973Z,9.67
2022-12-13T05:26:59.420Z,11.93
2022-12-13T05:29:29.418Z,10.40
2022-12-13T05:31:57.757Z,15.03
2022-12-13T05:34:26.287Z,11.07
2022-12-13T05:36:54.590Z,12.87
2022-12-13T05:39:27.797Z,10.87
2022-12-13T05:42:01.422Z,12.77
2022-12-13T05:44:33.036Z,12.10
2022-12-13T05:47:02.035Z,12.33
2022-12-13T05:49:32.323Z,9.97
2022-12-13T05:52:00.918Z,10.53
2022-12-13T05:54:29.281Z,10.23
2022-12-13T05:56:57.641Z,11.70
2022-12-13T05:59:26.068Z,11.63
2022-12-13T06:01:55.825Z,11.57
2022-12-13T06:04:24.376Z,11.47
2022-12-13T06:06:52.922Z,10.07
2022-12-13T06:09:21.575Z,10.70
2022-12-13T06:11:50.055Z,9.10
2022-12-13T06:14:22.446Z,14.27
2022-12-13T06:16:52.498Z,10.67
2022-12-13T06:19:23.272Z,11.87
2022-12-13T06:21:52.069Z,11.53
2022-12-13T06:24:22.045Z,11.73
2022-12-13T06:26:51.266Z,12.47
2022-12-13T06:29:23.220Z,11.17
2022-12-13T06:32:02.061Z,11.13
2022-12-13T06:34:34.059Z,14.73
2022-12-13T06:37:02.794Z,11.57
2022-12-13T06:39:32.326Z,11.20
2022-12-13T06:42:01.999Z,11.53
2022-12-13T06:44:30.300Z,11.07
2022-12-13T06:47:10.808Z,15.27
2022-12-13T06:49:44.741Z,11.43
2022-12-13T06:52:14.941Z,16.47
2022-12-13T06:54:43.836Z,14.48
2022-12-13T06:57:12.804Z,12.10
2022-12-13T06:59:41.634Z,15.07
2022-12-13T07:02:15.454Z,16.23
2022-12-13T07:04:56.467Z,11.10
2022-12-13T07:07:26.232Z,19.50
2022-12-13T07:09:54.848Z,19.23
2022-12-13T07:12:23.428Z,12.73
2022-12-13T07:14:51.783Z,12.77
2022-12-13T07:17:33.572Z,16.60
2022-12-13T07:20:09.279Z,27.03
2022-12-13T07:22:46.581Z,18.20
2022-12-13T07:25:27.555Z,13.23
2022-12-13T07:28:01.325Z,14.10
2022-12-13T07:30:31.316Z,11.93
2022-12-13T07:32:59.664Z,17.67
2022-12-13T07:35:29.366Z,17.63
2022-12-13T07:37:57.680Z,21.23
2022-12-13T07:40:26.178Z,18.23
2022-12-13T07:42:55.996Z,24.37
2022-12-13T07:45:25.378Z,29.80
2022-12-13T07:47:53.676Z,34.07
2022-12-13T07:50:24.579Z,45.73
2022-12-13T07:52:55.444Z,38.93
2022-12-13T07:55:33.460Z,32.43
2022-12-13T07:58:07.080Z,18.90
2022-12-13T08:00:35.488Z,30.00
2022-12-13T08:03:03.872Z,13.17
2022-12-13T08:05:38.627Z,25.90
2022-12-13T08:08:11.816Z,16.80
2022-12-13T08:10:40.632Z,15.70
2022-12-13T08:13:09.034Z,25.13
2022-12-13T08:15:37.297Z,20.13
2022-12-13T08:18:05.633Z,12.10
2022-12-13T08:20:34.121Z,17.10
2022-12-13T08:23:02.974Z,13.20
2022-12-13T08:25:33.162Z,26.97
2022-12-13T08:28:02.509Z,17.60
2022-12-13T08:30:32.403Z,18.60
2022-12-13T08:33:05.083Z,15.07
2022-12-13T08:35:34.964Z,14.97
2022-12-13T08:38:03.937Z,14.10
2022-12-13T08:40:34.990Z,14.73
2022-12-13T08:43:06.259Z,13.90
2022-12-13T08:45:35.089Z,14.80
2022-12-13T08:48:03.562Z,19.47
2022-12-13T08:50:32.622Z,14.43
2022-12-13T08:53:00.884Z,38.23
2022-12-13T08:55:32.023Z,12.70
2022-12-13T08:58:08.608Z,13.57
2022-12-13T09:00:37.678Z,10.37
2022-12-13T09:03:09.927Z,12.43
2022-12-13T09:05:38.989Z,13.07
2022-12-13T09:08:23.891Z,12.33
2022-12-13T09:11:00.148Z,10.43
2022-12-13T09:13:32.673Z,13.17
2022-12-13T09:16:05.168Z,12.27
2022-12-13T09:18:43.280Z,11.27
2022-12-13T09:21:13.227Z,12.97
2022-12-13T09:23:50.425Z,14.03
2022-12-13T09:26:18.770Z,10.63
2022-12-13T09:28:55.285Z,10.43
2022-12-13T09:31:23.839Z,13.20
2022-12-13T09:33:52.317Z,9.70
2022-12-13T09:36:22.876Z,12.17
2022-12-13T09:38:52.909Z,12.00
2022-12-13T09:41:29.026Z,8.37
2022-12-13T09:44:05.755Z,11.77
2022-12-13T09:46:44.556Z,8.37
2022-12-13T09:49:22.923Z,10.50
2022-12-13T09:52:11.169Z,10.33
2022-12-13T09:54:49.364Z,11.60
2022-12-13T09:57:32.260Z,11.23
2022-12-13T10:00:06.488Z,10.87
2022-12-13T10:02:41.283Z,8.97
2022-12-13T10:05:38.377Z,15.40
2022-12-13T10:08:10.624Z,12.33
2022-12-13T10:10:39.445Z,9.40
2022-12-13T10:13:16.700Z,10.47
2022-12-13T10:15:49.944Z,9.30
2022-12-13T10:18:27.275Z,12.00
2022-12-13T10:20:56.343Z,9.00
2022-12-13T10:23:47.115Z,11.93
2022-12-13T10:26:23.992Z,8.77
2022-12-13T10:29:03.416Z,11.73
2022-12-13T10:32:12.937Z,14.17
2022-12-13T10:34:41.307Z,14.73
2022-12-13T10:37:27.867Z,10.50
2022-12-13T10:39:56.246Z,13.70
2022-12-13T10:42:29.090Z,15.83
2022-12-13T10:45:15.288Z,11.67
2022-12-13T10:47:46.459Z,13.37
2022-12-13T10:50:26.375Z,12.20
2022-12-13T10:52:55.420Z,10.37
2022-12-13T10:55:30.707Z,14.20
2022-12-13T10:58:02.225Z,15.60
2022-12-13T11:00:37.925Z,10.83
2022-12-13T11:03:08.052Z,9.50
2022-12-13T11:05:38.256Z,10.90
2022-12-13T11:08:20.364Z,13.97
2022-12-13T11:10:58.592Z,9.73
2022-12-13T11:13:37.037Z,12.33
2022-12-13T11:16:06.668Z,15.33
2022-12-13T11:18:40.591Z,10.03
2022-12-13T11:21:09.103Z,14.90
2022-12-13T11:23:40.921Z,12.40
2022-12-13T11:26:12.252Z,13.27
2022-12-13T11:29:09.506Z,10.40
2022-12-13T11:31:47.055Z,11.10
2022-12-13T11:34:27.203Z,11.60
2022-12-13T11:37:02.393Z,15.77
2022-12-13T11:39:34.010Z,14.10
2022-12-13T11:42:09.521Z,14.17
2022-12-13T11:44:48.120Z,14.00
2022-12-13T11:47:25.735Z,10.30
2022-12-13T11:49:58.680Z,11.80
2022-12-13T11:52:31.092Z,11.00
2022-12-13T11:55:02.511Z,10.90
2022-12-13T11:57:44.112Z,13.13
2022-12-13T12:00:33.882Z,8.80
2022-12-13T12:03:15.415Z,8.90
2022-12-13T12:05:55.982Z,7.77
2022-12-13T12:08:34.466Z,9.03
2022-12-13T12:11:10.316Z,10.03
2022-12-13T12:13:51.269Z,6.80
2022-12-13T12:16:31.896Z,9.07
2022-12-13T12:19:01.806Z,10.63
2022-12-13T12:22:12.187Z,7.87
2022-12-13T12:24:46.777Z,9.30
2022-12-13T12:27:30.282Z,9.37
2022-12-13T12:30:22.857Z,9.60
2022-12-13T12:32:55.369Z,11.03
2022-12-13T12:35:53.366Z,10.60
2022-12-13T12:39:09.339Z,10.30
2022-12-13T12:41:53.514Z,11.97
2022-12-13T12:44:31.586Z,8.83
2022-12-13T12:47:32.588Z,10.03
2022-12-13T12:50:20.589Z,8.50
2022-12-13T12:52:57.620Z,7.73
2022-12-13T12:55:37.049Z,10.73
2022-12-13T12:58:18.821Z,8.67
2022-12-13T13:00:58.067Z,7.87
2022-12-13T13:03:29.769Z,7.67
2022-12-13T13:06:03.064Z,8.10
2022-12-13T13:08:37.840Z,7.50
2022-12-13T13:11:24.755Z,8.67
2022-12-13T13:14:07.108Z,7.90
2022-12-13T13:16:40.288Z,8.83
2022-12-13T13:19:42.063Z,9.03
2022-12-13T13:22:31.581Z,8.07
2022-12-13T13:25:18.879Z,7.30
2022-12-13T13:27:48.104Z,10.97
2022-12-13T13:30:22.712Z,7.27
2022-12-13T13:32:53.295Z,13.07
2022-12-13T13:35:53.581Z,5.87
2022-12-13T13:38:47.310Z,6.27
2022-12-13T13:41:53.630Z,11.75
2022-12-13T13:44:49.865Z,8.98
2022-12-13T13:47:39.155Z,8.60
2022-12-13T13:50:36.047Z,10.73
2022-12-13T13:53:31.754Z,5.32
2022-12-13T13:56:10.144Z,5.32
2022-12-13T13:59:26.571Z,7.68
2022-12-13T14:02:37.585Z,7.30
2022-12-13T14:05:38.323Z,7.30
2022-12-13T14:08:33.893Z,8.30
2022-12-13T14:11:26.154Z,6.77
2022-12-13T14:14:42.543Z,6.07
2022-12-13T14:17:53.743Z,7.90
2022-12-13T14:21:10.028Z,10.17
2022-12-13T14:23:55.431Z,11.80
2022-12-13T14:26:36.512Z,6.90
2022-12-13T14:29:11.903Z,6.90
2022-12-13T14:31:44.131Z,7.40
2022-12-13T14:34:22.293Z,9.23
2022-12-13T14:36:57.738Z,12.70
2022-12-13T14:39:31.212Z,11.03
2022-12-13T14:42:01.668Z,12.43
2022-12-13T14:44:31.181Z,12.43
2022-12-13T14:47:02.184Z,12.00
2022-12-13T14:49:33.030Z,16.57
2022-12-13T14:52:06.661Z,15.10
2022-12-13T14:54:42.559Z,17.03
2022-12-13T14:57:17.361Z,19.77
2022-12-13T14:59:50.502Z,22.92
2022-12-13T15:02:30.824Z,16.87
2022-12-13T15:07:34.422Z,9.37
2022-12-13T15:10:07.278Z,14.67
2022-12-13T15:12:35.941Z,26.90
2022-12-13T15:15:06.638Z,16.77
2022-12-13T15:17:37.104Z,21.33
2022-12-13T15:20:28.026Z,17.07
2022-12-13T15:23:01.405Z,10.53
2022-12-13T15:25:33.534Z,12.33
2022-12-13T15:28:27.507Z,9.63
2022-12-13T15:30:57.698Z,12.80
2022-12-13T15:33:34.174Z,12.07
2022-12-13T15:36:09.745Z,14.67
2022-12-13T15:38:41.371Z,16.05
2022-12-13T15:41:19.241Z,16.37
2022-12-13T15:43:50.561Z,15.17
2022-12-13T15:46:27.179Z,16.37
2022-12-13T15:48:59.983Z,14.80
2022-12-13T15:51:30.470Z,17.13
2022-12-13T15:54:05.423Z,14.40
2022-12-13T15:56:37.072Z,14.43
2022-12-13T15:59:07.762Z,15.20
2022-12-13T16:01:38.051Z,14.87
2022-12-13T16:04:07.485Z,16.83
2022-12-13T16:06:36.567Z,16.03
2022-12-13T16:09:07.976Z,17.53
2022-12-13T16:11:48.167Z,15.97
2022-12-13T16:14:49.527Z,20.00
2022-12-13T16:17:24.644Z,19.70
2022-12-13T16:19:53.973Z,21.37
2022-12-13T16:22:24.202Z,19.90
2022-12-13T16:24:55.685Z,23.07
2022-12-13T16:27:25.588Z,23.02
2022-12-13T16:29:53.844Z,20.70
2022-12-13T16:32:22.222Z,21.47
2022-12-13T16:34:50.619Z,21.20
2022-12-13T16:37:26.155Z,26.03
2022-12-13T16:39:55.898Z,24.43
2022-12-13T16:42:27.472Z,23.10
2022-12-13T16:45:18.157Z,21.13
2022-12-13T16:47:49.485Z,25.13
2022-12-13T16:50:19.900Z,20.20
2022-12-13T16:52:48.311Z,21.40
2022-12-13T16:55:16.866Z,21.03
2022-12-13T16:57:56.934Z,17.73
2022-12-13T17:00:25.518Z,18.73
2022-12-13T17:02:54.019Z,23.60
2022-12-13T17:05:23.026Z,20.67
2022-12-13T17:07:51.475Z,21.57
2022-12-13T17:10:22.404Z,22.77
2022-12-13T17:12:52.475Z,24.60
2022-12-13T17:15:21.220Z,18.27
2022-12-13T17:17:49.610Z,25.10
2022-12-13T17:20:23.417Z,23.57
2022-12-13T17:22:59.084Z,24.70
2022-12-13T17:25:46.278Z,29.07
2022-12-13T17:28:27.985Z,21.33
2022-12-13T17:31:06.024Z,28.13
2022-12-13T17:33:34.471Z,25.83
2022-12-13T17:36:04.360Z,22.00
2022-12-13T17:38:33.148Z,25.20
2022-12-13T17:41:01.522Z,27.73
2022-12-13T17:43:35.386Z,31.87
2022-12-13T17:46:06.010Z,25.67
2022-12-13T17:48:40.826Z,31.07
2022-12-13T17:51:10.567Z,25.60
2022-12-13T17:53:41.079Z,27.23
2022-12-13T17:56:13.206Z,30.77
2022-12-13T17:58:43.697Z,35.00
2022-12-13T18:01:13.659Z,29.77
2022-12-13T18:03:42.329Z,32.00
2022-12-13T18:06:11.067Z,33.25
2022-12-13T18:08:40.683Z,31.43
2022-12-13T18:13:59.226Z,29.83
2022-12-13T18:16:35.902Z,30.13
2022-12-13T18:19:07.204Z,27.47
2022-12-13T18:21:37.043Z,33.83
2022-12-13T18:24:06.682Z,32.10
2022-12-13T18:26:35.205Z,32.73
2022-12-13T18:29:06.048Z,33.03
2022-12-13T18:31:34.587Z,33.80
2022-12-13T18:34:03.015Z,39.57
2022-12-13T18:36:31.341Z,30.23
2022-12-13T18:39:01.042Z,33.13
2022-12-13T18:41:31.292Z,38.17
2022-12-13T18:44:01.903Z,41.03
2022-12-13T18:46:34.571Z,33.60
2022-12-13T18:49:03.277Z,33.43
2022-12-13T18:51:32.359Z,32.57
2022-12-13T18:54:00.699Z,30.33
2022-12-13T18:56:29.435Z,31.23
2022-12-13T18:58:59.567Z,32.67
2022-12-13T19:01:28.786Z,35.07
2022-12-13T19:03:58.686Z,31.90
2022-12-13T19:06:28.934Z,41.23
2022-12-13T19:08:59.313Z,36.27
2022-12-13T19:11:29.198Z,33.67
2022-12-13T19:13:58.005Z,42.00
2022-12-13T19:16:27.230Z,38.30
2022-12-13T19:18:55.608Z,38.90
2022-12-13T19:21:25.527Z,37.17
2022-12-13T19:23:57.798Z,36.20
2022-12-13T19:26:28.482Z,40.13
2022-12-13T19:28:58.517Z,34.40
2022-12-13T19:31:30.940Z,36.93
2022-12-13T19:34:03.772Z,38.83
2022-12-13T19:36:34.020Z,32.77
2022-12-13T19:39:02.681Z,36.53
2022-12-13T19:41:32.403Z,36.80
2022-12-13T19:44:02.473Z,42.40
2022-12-13T19:46:30.929Z,32.43
2022-12-13T19:48:59.269Z,35.80
2022-12-13T19:51:27.647Z,37.27
2022-12-13T19:53:57.456Z,30.63
2022-12-13T19:56:26.026Z,34.53
2022-12-13T19:58:55.090Z,32.00
2022-12-13T20:01:23.917Z,35.60
2022-12-13T20:03:52.435Z,43.13
2022-12-13T20:06:22.673Z,36.80
2022-12-13T20:08:53.126Z,36.87
2022-12-13T20:11:24.683Z,33.77
2022-12-13T20:13:56.607Z,36.03
2022-12-13T20:16:26.754Z,34.23
2022-12-13T20:18:56.928Z,38.07
2022-12-13T20:21:26.008Z,41.50
2022-12-13T20:23:54.767Z,32.30
2022-12-13T20:26:29.569Z,34.50
2022-12-13T20:28:58.092Z,32.87
2022-12-13T20:31:29.401Z,33.30
2022-12-13T20:33:58.542Z,39.70
2022-12-13T20:36:29.135Z,30.03
2022-12-13T20:38:59.616Z,33.73
2022-12-13T20:41:31.442Z,31.53
2022-12-13T20:44:01.224Z,40.87
2022-12-13T20:46:31.061Z,35.47
2022-12-13T20:49:02.223Z,32.83
2022-12-13T20:51:32.302Z,34.63
2022-12-13T20:54:00.842Z,31.10
2022-12-13T20:56:34.586Z,31.27
2022-12-13T20:59:03.506Z,29.23
2022-12-13T21:01:35.043Z,31.80
2022-12-13T21:04:05.435Z,31.23
2022-12-13T21:06:36.131Z,34.13
2022-12-13T21:09:05.731Z,30.43
2022-12-13T21:11:37.366Z,39.40
2022-12-13T21:14:10.169Z,32.10
2022-12-13T21:16:42.710Z,37.50
2022-12-13T21:19:14.285Z,29.20
2022-12-13T21:21:42.760Z,33.13
2022-12-13T21:24:13.595Z,37.40
2022-12-13T21:26:47.290Z,31.07
2022-12-13T21:29:17.027Z,32.67
2022-12-13T21:31:48.793Z,32.70
2022-12-13T21:34:18.796Z,38.20
2022-12-13T21:36:48.965Z,36.08
2022-12-13T21:39:18.832Z,34.67
2022-12-13T21:41:48.574Z,37.33
2022-12-13T21:44:18.285Z,32.10
2022-12-13T21:49:35.184Z,34.60
2022-12-13T21:52:03.573Z,36.30
2022-12-13T21:54:32.160Z,35.40
2022-12-13T21:57:19.202Z,36.90
2022-12-13T21:59:47.628Z,33.17
2022-12-13T22:02:18.861Z,38.43
2022-12-13T22:04:49.226Z,34.93
2022-12-13T22:07:19.712Z,34.77
2022-12-13T22:09:49.072Z,34.70
2022-12-13T22:12:24.370Z,32.37
2022-12-13T22:14:53.184Z,36.83
2022-12-13T22:17:27.019Z,32.20
2022-12-13T22:19:59.736Z,36.17
2022-12-13T22:22:28.157Z,35.07
2022-12-13T22:24:56.468Z,32.97
2022-12-13T22:27:26.445Z,31.17
2022-12-13T22:29:57.065Z,33.33
2022-12-13T22:32:27.108Z,36.47
2022-12-13T22:34:55.634Z,40.57
2022-12-13T22:37:24.869Z,36.93
2022-12-13T22:39:53.280Z,38.43
2022-12-13T22:42:21.939Z,42.50
2022-12-13T22:44:52.095Z,31.87
2022-12-13T22:47:20.424Z,37.80
2022-12-13T22:49:49.189Z,39.17
2022-12-13T22:52:17.868Z,33.20
2022-12-13T22:54:46.248Z,39.33
2022-12-13T22:57:14.606Z,34.33
2022-12-13T22:59:42.866Z,36.13
2022-12-13T23:02:13.171Z,36.70
2022-12-13T23:04:41.547Z,32.00
2022-12-13T23:07:10.244Z,34.13
2022-12-13T23:09:38.570Z,33.37
2022-12-13T23:12:25.067Z,41.33
2022-12-13T23:14:53.347Z,42.17
2022-12-13T23:17:23.025Z,43.87
2022-12-13T23:19:53.322Z,39.50
2022-12-13T23:22:22.971Z,41.40
2022-12-13T23:24:51.396Z,38.37
2022-12-13T23:27:20.609Z,35.70
2022-12-13T23:29:49.011Z,33.43
2022-12-13T23:32:17.511Z,38.70
2022-12-13T23:34:47.181Z,35.13
2022-12-13T23:37:15.476Z,34.67
2022-12-13T23:39:44.001Z,37.37
2022-12-13T23:42:12.360Z,39.77
2022-12-13T23:44:40.802Z,38.90
2022-12-13T23:47:09.039Z,39.80
2022-12-13T23:49:37.358Z,40.30
2022-12-13T23:52:07.152Z,38.20
2022-12-13T23:54:35.530Z,42.53
2022-12-13T23:57:03.835Z,47.83
2022-12-13T23:59:32.146Z,39.07
